PWSweather.com
Personal Weather Stations
Station Observations
IHTIMAN1
Neighbourhood 1, IhtimanBG 2050

Neighbourhood 1IhtimanBG 2050

Lat: 42.436852, Lon: 23.817921

Elevation: 2066

Station Type: Oregon Scientific WMR968

http://ihtiman-meteo.com

High Low Average
Temperature 36.9°F2.7°F 29.7°F-1.3°F 33.1°F0.6°F
Dew Point 33.0°F0.6°F 22.1°F-5.5°F 27.2°F-2.7°F
Winds 18.7 mph NW30.1 mph NW Calm Calm 11.1 mph 17.9 mph
Wind Gusts 26.6 mph42.8 mph 2.7 mph4.3 mph 16.0 mph25.7 mph
Humidity 96% 72% 79%
Pressure 29.82 in1009.80 in 29.32 in992.90 in -
Precipitation 0.00 in0.00 in - -
Hour Temp Dew Point Humidity Winds Wind Gusts Pressure Precip Precip Rate Daily Precip Total
12:00 AM 33.8°F1.0°C 32.8°F0.4°C 96% 8.1 mph NW13.0 kmh NW 11.8 mph19.0 kmh 29.32 in992.9 mb - 0.00 in0.0 mm 0.00 in0.0 mm
12:10 AM 33.8°F1.0°C 32.8°F0.4°C 96% 9.2 mph NW14.8 kmh NW 13.2 mph21.2 kmh 29.32 in992.9 mb - 0.00 in0.0 mm 0.00 in0.0 mm
12:20 AM 33.8°F1.0°C 32.8°F0.4°C 96% 10.2 mph NW16.4 kmh NW 12.7 mph20.4 kmh 29.32 in992.9 mb - 0.00 in0.0 mm 0.00 in0.0 mm
12:30 AM 33.6°F0.9°C 32.6°F0.3°C 96% 7.6 mph NNW12.2 kmh NNW 10.9 mph17.5 kmh 29.32 in992.9 mb - 0.00 in0.0 mm 0.00 in0.0 mm
12:40 AM 33.6°F0.9°C 32.6°F0.3°C 96% 10.5 mph NW16.9 kmh NW 10.1 mph16.3 kmh 29.32 in992.9 mb - 0.00 in0.0 mm 0.00 in0.0 mm
12:50 AM 33.8°F1.0°C 32.8°F0.4°C 96% 5.7 mph NW9.2 kmh NW 12.3 mph19.8 kmh 29.35 in993.9 mb - 0.00 in0.0 mm 0.00 in0.0 mm
01:00 AM 33.8°F1.0°C 32.8°F0.4°C 96% 8.2 mph NNW13.2 kmh NNW 10.5 mph16.9 kmh 29.35 in993.9 mb - 0.00 in0.0 mm 0.00 in0.0 mm
01:10 AM 33.8°F1.0°C 32.8°F0.4°C 96% 7.4 mph NW11.9 kmh NW 12.3 mph19.8 kmh 29.35 in993.9 mb - 0.00 in0.0 mm 0.00 in0.0 mm
01:20 AM 33.8°F1.0°C 32.8°F0.4°C 96% 5.7 mph WNW9.2 kmh WNW 12.7 mph20.4 kmh 29.35 in993.9 mb - 0.00 in0.0 mm 0.00 in0.0 mm
01:30 AM 33.8°F1.0°C 32.8°F0.4°C 96% 9.6 mph NNW15.4 kmh NNW 11.4 mph18.3 kmh 29.35 in993.9 mb - 0.00 in0.0 mm 0.00 in0.0 mm
01:40 AM 33.8°F1.0°C 32.8°F0.4°C 96% 9.8 mph NW15.8 kmh NW 14.5 mph23.3 kmh 29.35 in993.9 mb - 0.00 in0.0 mm 0.00 in0.0 mm
01:50 AM 34.0°F1.1°C 33.0°F0.6°C 96% 9.5 mph N15.3 kmh N 10.9 mph17.5 kmh 29.38 in994.9 mb - 0.00 in0.0 mm 0.00 in0.0 mm
02:00 AM 34.0°F1.1°C 33.0°F0.6°C 96% 10.9 mph WNW17.5 kmh WNW 12.7 mph20.4 kmh 29.38 in994.9 mb - 0.00 in0.0 mm 0.00 in0.0 mm
02:10 AM 34.0°F1.1°C 33.0°F0.6°C 96% 10.8 mph NNW17.4 kmh NNW 17.0 mph27.4 kmh 29.38 in994.9 mb - 0.00 in0.0 mm 0.00 in0.0 mm
02:20 AM 34.0°F1.1°C 33.0°F0.6°C 96% 12.9 mph W20.8 kmh W 15.4 mph24.8 kmh 29.38 in994.9 mb - 0.00 in0.0 mm 0.00 in0.0 mm
02:30 AM 34.0°F1.1°C 33.0°F0.6°C 96% 14.1 mph NW22.7 kmh NW 16.3 mph26.2 kmh 29.38 in994.9 mb - 0.00 in0.0 mm 0.00 in0.0 mm
02:40 AM 34.0°F1.1°C 33.0°F0.6°C 96% 10.7 mph NW17.2 kmh NW 12.7 mph20.4 kmh 29.38 in994.9 mb - 0.00 in0.0 mm 0.00 in0.0 mm
02:50 AM 34.0°F1.1°C 33.0°F0.6°C 96% 10.9 mph NW17.5 kmh NW 15.4 mph24.8 kmh 29.41 in995.9 mb - 0.00 in0.0 mm 0.00 in0.0 mm
03:00 AM 33.8°F1.0°C 32.5°F0.3°C 95% 14.1 mph NW22.7 kmh NW 17.4 mph28.0 kmh 29.41 in995.9 mb - 0.00 in0.0 mm 0.00 in0.0 mm
03:10 AM 33.8°F1.0°C 32.5°F0.3°C 95% 11.7 mph NW18.8 kmh NW 19.2 mph30.9 kmh 29.38 in994.9 mb - 0.00 in0.0 mm 0.00 in0.0 mm
03:20 AM 33.6°F0.9°C 32.1°F0.1°C 94% 12.7 mph NW20.4 kmh NW 17.4 mph28.0 kmh 29.38 in994.9 mb - 0.00 in0.0 mm 0.00 in0.0 mm
03:30 AM 33.6°F0.9°C 32.0°F0.0°C 94% 17.0 mph NW27.4 kmh NW 19.2 mph30.9 kmh 29.38 in994.9 mb - 0.00 in0.0 mm 0.00 in0.0 mm
03:40 AM 33.4°F0.8°C 31.6°F-0.2°C 93% 14.0 mph NW22.5 kmh NW 25.0 mph40.2 kmh 29.41 in995.9 mb - 0.00 in0.0 mm 0.00 in0.0 mm
03:50 AM 33.3°F0.7°C 31.2°F-0.4°C 92% 12.2 mph NNW19.6 kmh NNW 17.4 mph28.0 kmh 29.41 in995.9 mb - 0.00 in0.0 mm 0.00 in0.0 mm
04:00 AM 33.3°F0.7°C 30.6°F-0.8°C 90% 13.6 mph NNW21.9 kmh NNW 15.9 mph25.6 kmh 29.41 in995.9 mb - 0.00 in0.0 mm 0.00 in0.0 mm
04:10 AM 33.1°F0.6°C 30.5°F-0.8°C 90% 12.3 mph NW19.8 kmh NW 22.8 mph36.7 kmh 29.41 in995.9 mb - 0.00 in0.0 mm 0.00 in0.0 mm
04:20 AM 33.1°F0.6°C 30.2°F-1.0°C 89% 11.1 mph NW17.9 kmh NW 14.1 mph22.7 kmh 29.41 in995.9 mb - 0.00 in0.0 mm 0.00 in0.0 mm
04:30 AM 33.1°F0.6°C 29.9°F-1.2°C 88% 14.2 mph NNW22.9 kmh NNW 22.8 mph36.7 kmh 29.41 in995.9 mb - 0.00 in0.0 mm 0.00 in0.0 mm
04:40 AM 32.9°F0.5°C 29.5°F-1.4°C 87% 13.1 mph NW21.1 kmh NW 16.8 mph27.0 kmh 29.41 in995.9 mb - 0.00 in0.0 mm 0.00 in0.0 mm
04:50 AM 32.9°F0.5°C 29.2°F-1.6°C 86% 12.5 mph NNW20.1 kmh NNW 19.2 mph30.9 kmh 29.41 in995.9 mb - 0.00 in0.0 mm 0.00 in0.0 mm
05:00 AM 32.7°F0.4°C 29.0°F-1.7°C 86% 14.0 mph WNW22.5 kmh WNW 17.4 mph28.0 kmh 29.41 in995.9 mb - 0.00 in0.0 mm 0.00 in0.0 mm
05:10 AM 32.6°F0.3°C 28.6°F-1.9°C 85% 15.3 mph W24.6 kmh W 22.8 mph36.7 kmh 29.44 in997.0 mb - 0.00 in0.0 mm 0.00 in0.0 mm
05:20 AM 32.5°F0.3°C 28.5°F-1.9°C 85% 12.7 mph NNW20.4 kmh NNW 17.4 mph28.0 kmh 29.44 in997.0 mb - 0.00 in0.0 mm 0.00 in0.0 mm
05:30 AM 32.4°F0.2°C 28.1°F-2.2°C 84% 14.3 mph NW23.0 kmh NW 15.4 mph24.8 kmh 29.44 in997.0 mb - 0.00 in0.0 mm 0.00 in0.0 mm
05:40 AM 32.2°F0.1°C 27.6°F-2.4°C 83% 16.1 mph NW25.9 kmh NW 19.7 mph31.7 kmh 29.44 in997.0 mb - 0.00 in0.0 mm 0.00 in0.0 mm
05:50 AM 32.0°F0.0°C 27.4°F-2.6°C 83% 15.9 mph NW25.6 kmh NW 21.9 mph35.2 kmh 29.44 in997.0 mb - 0.00 in0.0 mm 0.00 in0.0 mm
06:00 AM 31.8°F-0.1°C 27.0°F-2.8°C 82% 16.5 mph N26.6 kmh N 15.4 mph24.8 kmh 29.44 in997.0 mb - 0.00 in0.0 mm 0.00 in0.0 mm
06:10 AM 31.8°F-0.1°C 27.0°F-2.8°C 82% 15.5 mph NW24.9 kmh NW 15.0 mph24.1 kmh 29.47 in998.0 mb - 0.00 in0.0 mm 0.00 in0.0 mm
06:20 AM 31.6°F-0.2°C 26.8°F-2.9°C 82% 14.1 mph N22.7 kmh N 24.1 mph38.8 kmh 29.47 in998.0 mb - 0.00 in0.0 mm 0.00 in0.0 mm
06:30 AM 31.5°F-0.3°C 26.7°F-2.9°C 82% 13.3 mph NW21.4 kmh NW 19.2 mph30.9 kmh 29.47 in998.0 mb - 0.00 in0.0 mm 0.00 in0.0 mm
06:40 AM 31.5°F-0.3°C 26.6°F-3.0°C 82% 16.4 mph NW26.4 kmh NW 21.0 mph33.8 kmh 29.47 in998.0 mb - 0.00 in0.0 mm 0.00 in0.0 mm
06:50 AM 31.5°F-0.3°C 26.6°F-3.0°C 82% 12.5 mph WNW20.1 kmh WNW 12.7 mph20.4 kmh 29.50 in999.0 mb - 0.00 in0.0 mm 0.00 in0.0 mm
07:00 AM 31.5°F-0.3°C 26.6°F-3.0°C 82% 13.7 mph NW22.0 kmh NW 17.4 mph28.0 kmh 29.50 in999.0 mb - 0.00 in0.0 mm 0.00 in0.0 mm
07:10 AM 31.3°F-0.4°C 26.1°F-3.3°C 81% 15.6 mph NW25.1 kmh NW 25.0 mph40.2 kmh 29.50 in999.0 mb - 0.00 in0.0 mm 0.00 in0.0 mm
07:20 AM 31.3°F-0.4°C 26.1°F-3.3°C 81% 12.5 mph NW20.1 kmh NW 15.9 mph25.6 kmh 29.50 in999.0 mb - 0.00 in0.0 mm 0.00 in0.0 mm
07:30 AM 31.5°F-0.3°C 26.3°F-3.2°C 81% 14.9 mph NW24.0 kmh NW 23.2 mph37.3 kmh 29.50 in999.0 mb - 0.00 in0.0 mm 0.00 in0.0 mm
07:40 AM 31.3°F-0.4°C 26.1°F-3.3°C 81% 15.0 mph NW24.1 kmh NW 20.6 mph33.2 kmh 29.50 in999.0 mb - 0.00 in0.0 mm 0.00 in0.0 mm
07:50 AM 31.3°F-0.4°C 26.1°F-3.3°C 81% 12.7 mph NW20.4 kmh NW 21.5 mph34.6 kmh 29.50 in999.0 mb - 0.00 in0.0 mm 0.00 in0.0 mm
08:00 AM 31.2°F-0.4°C 25.8°F-3.4°C 80% 14.6 mph NW23.5 kmh NW 22.8 mph36.7 kmh 29.50 in999.0 mb - 0.00 in0.0 mm 0.00 in0.0 mm
08:10 AM 31.1°F-0.5°C 25.7°F-3.5°C 80% 11.9 mph NW19.2 kmh NW 15.4 mph24.8 kmh 29.53 in1000.0 mb - 0.00 in0.0 mm 0.00 in0.0 mm
08:20 AM 31.1°F-0.5°C 25.7°F-3.5°C 80% 12.2 mph W19.6 kmh W 14.5 mph23.3 kmh 29.56 in1001.0 mb - 0.00 in0.0 mm 0.00 in0.0 mm
08:30 AM 31.1°F-0.5°C 25.7°F-3.5°C 80% 14.9 mph NNW24.0 kmh NNW 17.4 mph28.0 kmh 29.56 in1001.0 mb - 0.00 in0.0 mm 0.00 in0.0 mm
08:40 AM 31.1°F-0.5°C 25.7°F-3.5°C 80% 14.5 mph NNW23.3 kmh NNW 22.3 mph35.9 kmh 29.56 in1001.0 mb - 0.00 in0.0 mm 0.00 in0.0 mm
08:50 AM 31.1°F-0.5°C 25.7°F-3.5°C 80% 12.5 mph NW20.1 kmh NW 19.7 mph31.7 kmh 29.56 in1001.0 mb - 0.00 in0.0 mm 0.00 in0.0 mm
09:00 AM 31.1°F-0.5°C 25.7°F-3.5°C 80% 10.8 mph NW17.4 kmh NW 18.8 mph30.3 kmh 29.56 in1001.0 mb - 0.00 in0.0 mm 0.00 in0.0 mm
09:10 AM 31.1°F-0.5°C 25.7°F-3.5°C 80% 11.5 mph NW18.5 kmh NW 17.4 mph28.0 kmh 29.59 in1002.0 mb - 0.00 in0.0 mm 0.00 in0.0 mm
09:20 AM 31.2°F-0.4°C 25.5°F-3.6°C 79% 16.3 mph WNW26.2 kmh WNW 17.0 mph27.4 kmh 29.59 in1002.0 mb - 0.00 in0.0 mm 0.00 in0.0 mm
09:30 AM 31.3°F-0.4°C 25.2°F-3.8°C 78% 10.0 mph WNW16.1 kmh WNW 26.1 mph42.0 kmh 29.59 in1002.0 mb - 0.00 in0.0 mm 0.00 in0.0 mm
09:40 AM 31.5°F-0.3°C 25.1°F-3.8°C 77% 14.3 mph WNW23.0 kmh WNW 13.6 mph21.9 kmh 29.59 in1002.0 mb - 0.00 in0.0 mm 0.00 in0.0 mm
09:50 AM 31.5°F-0.3°C 25.1°F-3.8°C 77% 11.9 mph NW19.2 kmh NW 22.8 mph36.7 kmh 29.62 in1003.0 mb - 0.00 in0.0 mm 0.00 in0.0 mm
10:00 AM 31.6°F-0.2°C 24.9°F-3.9°C 76% 12.7 mph NW20.4 kmh NW 13.2 mph21.2 kmh 29.62 in1003.0 mb - 0.00 in0.0 mm 0.00 in0.0 mm
10:10 AM 31.8°F-0.1°C 25.1°F-3.8°C 76% 10.2 mph WNW16.4 kmh WNW 19.2 mph30.9 kmh 29.62 in1003.0 mb - 0.00 in0.0 mm 0.00 in0.0 mm
10:20 AM 32.0°F0.0°C 25.3°F-3.7°C 76% 12.4 mph NW20.0 kmh NW 15.0 mph24.1 kmh 29.62 in1003.0 mb - 0.00 in0.0 mm 0.00 in0.0 mm
10:30 AM 32.2°F0.1°C 25.5°F-3.6°C 76% 11.6 mph NNW18.7 kmh NNW 16.8 mph27.0 kmh 29.62 in1003.0 mb - 0.00 in0.0 mm 0.00 in0.0 mm
10:40 AM 32.2°F0.1°C 25.5°F-3.6°C 76% 12.1 mph NW19.5 kmh NW 24.6 mph39.6 kmh 29.62 in1003.0 mb - 0.00 in0.0 mm 0.00 in0.0 mm
10:50 AM 32.5°F0.3°C 25.8°F-3.4°C 76% 10.5 mph NW16.9 kmh NW 22.3 mph35.9 kmh 29.65 in1004.1 mb - 0.00 in0.0 mm 0.00 in0.0 mm
11:00 AM 32.7°F0.4°C 25.7°F-3.5°C 75% 13.2 mph NW21.2 kmh NW 26.6 mph42.8 kmh 29.65 in1004.1 mb - 0.00 in0.0 mm 0.00 in0.0 mm
11:10 AM 33.5°F0.8°C 26.4°F-3.1°C 75% 13.2 mph NW21.2 kmh NW 19.7 mph31.7 kmh 29.65 in1004.1 mb - 0.00 in0.0 mm 0.00 in0.0 mm
11:20 AM 34.0°F1.1°C 26.6°F-3.0°C 74% 13.7 mph N22.0 kmh N 17.0 mph27.4 kmh 29.65 in1004.1 mb - 0.00 in0.0 mm 0.00 in0.0 mm
11:30 AM 34.7°F1.5°C 26.9°F-2.8°C 73% 14.6 mph NNW23.5 kmh NNW 22.3 mph35.9 kmh 29.65 in1004.1 mb - 0.00 in0.0 mm 0.00 in0.0 mm
11:40 AM 35.4°F1.9°C 27.6°F-2.4°C 73% 11.5 mph WNW18.5 kmh WNW 17.0 mph27.4 kmh 29.65 in1004.1 mb - 0.00 in0.0 mm 0.00 in0.0 mm
11:50 AM 35.8°F2.1°C 27.7°F-2.4°C 72% 13.1 mph NW21.1 kmh NW 15.9 mph25.6 kmh 29.65 in1004.1 mb - 0.00 in0.0 mm 0.00 in0.0 mm
12:00 PM 36.3°F2.4°C 28.2°F-2.1°C 72% 9.3 mph NW15.0 kmh NW 16.3 mph26.2 kmh 29.65 in1004.1 mb - 0.00 in0.0 mm 0.00 in0.0 mm
12:10 PM 36.7°F2.6°C 28.5°F-1.9°C 72% 13.8 mph NW22.2 kmh NW 17.4 mph28.0 kmh 29.68 in1005.1 mb - 0.00 in0.0 mm 0.00 in0.0 mm
12:20 PM 36.5°F2.5°C 28.3°F-2.1°C 72% 13.2 mph NNW21.2 kmh NNW 17.4 mph28.0 kmh 29.68 in1005.1 mb - 0.00 in0.0 mm 0.00 in0.0 mm
12:30 PM 36.9°F2.7°C 28.7°F-1.8°C 72% 14.8 mph WNW23.8 kmh WNW 19.7 mph31.7 kmh 29.68 in1005.1 mb - 0.00 in0.0 mm 0.00 in0.0 mm
12:40 PM 36.7°F2.6°C 28.5°F-1.9°C 72% 13.2 mph NW21.2 kmh NW 19.7 mph31.7 kmh 29.68 in1005.1 mb - 0.00 in0.0 mm 0.00 in0.0 mm
12:50 PM 36.8°F2.7°C 28.7°F-1.8°C 72% 11.4 mph NW18.3 kmh NW 15.0 mph24.1 kmh 29.68 in1005.1 mb - 0.00 in0.0 mm 0.00 in0.0 mm
01:00 PM 36.7°F2.6°C 28.5°F-1.9°C 72% 12.3 mph NW19.8 kmh NW 19.2 mph30.9 kmh 29.68 in1005.1 mb - 0.00 in0.0 mm 0.00 in0.0 mm
01:10 PM 36.1°F2.3°C 28.0°F-2.2°C 72% 11.1 mph NW17.9 kmh NW 18.3 mph29.5 kmh 29.71 in1006.1 mb - 0.00 in0.0 mm 0.00 in0.0 mm
01:20 PM 36.9°F2.7°C 28.7°F-1.8°C 72% 10.6 mph NW17.1 kmh NW 21.5 mph34.6 kmh 29.68 in1005.1 mb - 0.00 in0.0 mm 0.00 in0.0 mm
01:30 PM 36.7°F2.6°C 28.5°F-1.9°C 72% 12.7 mph NW20.4 kmh NW 21.5 mph34.6 kmh 29.68 in1005.1 mb - 0.00 in0.0 mm 0.00 in0.0 mm
01:40 PM 36.5°F2.5°C 28.3°F-2.1°C 72% 14.6 mph NW23.5 kmh NW 22.3 mph35.9 kmh 29.71 in1006.1 mb - 0.00 in0.0 mm 0.00 in0.0 mm
01:50 PM 36.1°F2.3°C 28.0°F-2.2°C 72% 13.4 mph NW21.6 kmh NW 24.1 mph38.8 kmh 29.71 in1006.1 mb - 0.00 in0.0 mm 0.00 in0.0 mm
02:00 PM 36.0°F2.2°C 27.8°F-2.3°C 72% 16.6 mph NW26.7 kmh NW 19.7 mph31.7 kmh 29.71 in1006.1 mb - 0.00 in0.0 mm 0.00 in0.0 mm
02:10 PM 36.0°F2.2°C 27.8°F-2.3°C 72% 15.4 mph NNW24.8 kmh NNW 22.8 mph36.7 kmh 29.71 in1006.1 mb - 0.00 in0.0 mm 0.00 in0.0 mm
02:20 PM 35.8°F2.1°C 27.6°F-2.4°C 72% 13.2 mph NW21.2 kmh NW 19.7 mph31.7 kmh 29.71 in1006.1 mb - 0.00 in0.0 mm 0.00 in0.0 mm
02:30 PM 36.1°F2.3°C 28.0°F-2.2°C 72% 12.2 mph N19.6 kmh N 17.4 mph28.0 kmh 29.71 in1006.1 mb - 0.00 in0.0 mm 0.00 in0.0 mm
02:40 PM 36.2°F2.3°C 28.1°F-2.2°C 72% 16.7 mph NNW26.9 kmh NNW 19.7 mph31.7 kmh 29.71 in1006.1 mb - 0.00 in0.0 mm 0.00 in0.0 mm
02:50 PM 36.1°F2.3°C 28.0°F-2.2°C 72% 14.9 mph NNW24.0 kmh NNW 19.7 mph31.7 kmh 29.71 in1006.1 mb - 0.00 in0.0 mm 0.00 in0.0 mm
03:00 PM 36.1°F2.3°C 28.0°F-2.2°C 72% 13.1 mph NW21.1 kmh NW 19.2 mph30.9 kmh 29.71 in1006.1 mb - 0.00 in0.0 mm 0.00 in0.0 mm
03:10 PM 36.1°F2.3°C 28.0°F-2.2°C 72% 17.4 mph NW28.0 kmh NW 22.3 mph35.9 kmh 29.71 in1006.1 mb - 0.00 in0.0 mm 0.00 in0.0 mm
03:20 PM 35.8°F2.1°C 27.6°F-2.4°C 72% 12.3 mph NNW19.8 kmh NNW 21.0 mph33.8 kmh 29.71 in1006.1 mb - 0.00 in0.0 mm 0.00 in0.0 mm
03:30 PM 35.8°F2.1°C 27.6°F-2.4°C 72% 17.9 mph NW28.8 kmh NW 24.6 mph39.6 kmh 29.71 in1006.1 mb - 0.00 in0.0 mm 0.00 in0.0 mm
03:40 PM 35.4°F1.9°C 27.3°F-2.6°C 72% 15.0 mph NW24.1 kmh NW 25.0 mph40.2 kmh 29.74 in1007.1 mb - 0.00 in0.0 mm 0.00 in0.0 mm
03:50 PM 35.2°F1.8°C 27.1°F-2.7°C 72% 16.2 mph NNW26.1 kmh NNW 19.7 mph31.7 kmh 29.74 in1007.1 mb - 0.00 in0.0 mm 0.00 in0.0 mm
04:00 PM 35.1°F1.7°C 26.9°F-2.8°C 72% 14.5 mph NW23.3 kmh NW 20.6 mph33.2 kmh 29.74 in1007.1 mb - 0.00 in0.0 mm 0.00 in0.0 mm
04:10 PM 34.9°F1.6°C 26.8°F-2.9°C 72% 18.7 mph NW30.1 kmh NW 25.5 mph41.0 kmh 29.74 in1007.1 mb - 0.00 in0.0 mm 0.00 in0.0 mm
04:20 PM 34.7°F1.5°C 26.6°F-3.0°C 72% 14.0 mph NW22.5 kmh NW 19.2 mph30.9 kmh 29.74 in1007.1 mb - 0.00 in0.0 mm 0.00 in0.0 mm
04:30 PM 34.5°F1.4°C 26.4°F-3.1°C 72% 17.7 mph NW28.5 kmh NW 24.1 mph38.8 kmh 29.74 in1007.1 mb - 0.00 in0.0 mm 0.00 in0.0 mm
04:40 PM 34.3°F1.3°C 26.2°F-3.2°C 72% 11.1 mph N17.9 kmh N 15.0 mph24.1 kmh 29.74 in1007.1 mb - 0.00 in0.0 mm 0.00 in0.0 mm
04:50 PM 34.0°F1.1°C 25.9°F-3.4°C 72% 12.9 mph NW20.8 kmh NW 25.0 mph40.2 kmh 29.74 in1007.1 mb - 0.00 in0.0 mm 0.00 in0.0 mm
05:00 PM 33.8°F1.0°C 25.7°F-3.5°C 72% 11.5 mph NW18.5 kmh NW 22.8 mph36.7 kmh 29.74 in1007.1 mb - 0.00 in0.0 mm 0.00 in0.0 mm
05:10 PM 33.5°F0.8°C 25.8°F-3.4°C 73% 9.6 mph NW15.4 kmh NW 12.7 mph20.4 kmh 29.77 in1008.1 mb - 0.00 in0.0 mm 0.00 in0.0 mm
05:20 PM 33.3°F0.7°C 25.5°F-3.6°C 73% 12.3 mph N19.8 kmh N 15.4 mph24.8 kmh 29.77 in1008.1 mb - 0.00 in0.0 mm 0.00 in0.0 mm
05:30 PM 33.1°F0.6°C 25.4°F-3.7°C 73% 12.2 mph NW19.6 kmh NW 18.3 mph29.5 kmh 29.77 in1008.1 mb - 0.00 in0.0 mm 0.00 in0.0 mm
05:40 PM 33.1°F0.6°C 25.4°F-3.7°C 73% 11.6 mph NW18.7 kmh NW 17.4 mph28.0 kmh 29.77 in1008.1 mb - 0.00 in0.0 mm 0.00 in0.0 mm
05:50 PM 32.9°F0.5°C 25.2°F-3.8°C 73% 8.8 mph N14.2 kmh N 10.5 mph16.9 kmh 29.80 in1009.1 mb - 0.00 in0.0 mm 0.00 in0.0 mm
06:00 PM 32.7°F0.4°C 25.0°F-3.9°C 73% 10.2 mph NW16.4 kmh NW 12.3 mph19.8 kmh 29.80 in1009.1 mb - 0.00 in0.0 mm 0.00 in0.0 mm
06:10 PM 32.7°F0.4°C 25.0°F-3.9°C 73% 11.4 mph NW18.3 kmh NW 12.3 mph19.8 kmh 29.80 in1009.1 mb - 0.00 in0.0 mm 0.00 in0.0 mm
06:20 PM 32.9°F0.5°C 25.2°F-3.8°C 73% 9.6 mph NW15.4 kmh NW 15.4 mph24.8 kmh 29.80 in1009.1 mb - 0.00 in0.0 mm 0.00 in0.0 mm
06:30 PM 32.9°F0.5°C 25.2°F-3.8°C 73% 10.6 mph WNW17.1 kmh WNW 13.2 mph21.2 kmh 29.80 in1009.1 mb - 0.00 in0.0 mm 0.00 in0.0 mm
06:40 PM 32.9°F0.5°C 25.2°F-3.8°C 73% 10.8 mph NW17.4 kmh NW 15.4 mph24.8 kmh 29.80 in1009.1 mb - 0.00 in0.0 mm 0.00 in0.0 mm
06:50 PM 32.9°F0.5°C 25.2°F-3.8°C 73% 5.9 mph NW9.5 kmh NW 10.9 mph17.5 kmh 29.82 in1009.8 mb - 0.00 in0.0 mm 0.00 in0.0 mm
07:00 PM 32.7°F0.4°C 25.0°F-3.9°C 73% 9.8 mph NW15.8 kmh NW 11.8 mph19.0 kmh 29.82 in1009.8 mb - 0.00 in0.0 mm 0.00 in0.0 mm
07:10 PM 32.7°F0.4°C 25.0°F-3.9°C 73% 5.6 mph NW9.0 kmh NW 8.7 mph14.0 kmh 29.82 in1009.8 mb - 0.00 in0.0 mm 0.00 in0.0 mm
07:20 PM 32.5°F0.3°C 24.8°F-4.0°C 73% 6.7 mph NW10.8 kmh NW 8.0 mph12.9 kmh 29.82 in1009.8 mb - 0.00 in0.0 mm 0.00 in0.0 mm
07:30 PM 32.4°F0.2°C 24.7°F-4.1°C 73% 4.9 mph N7.9 kmh N 7.2 mph11.6 kmh 29.82 in1009.8 mb - 0.00 in0.0 mm 0.00 in0.0 mm
07:40 PM 32.2°F0.1°C 24.5°F-4.2°C 73% 6.0 mph NNW9.7 kmh NNW 7.6 mph12.2 kmh 29.82 in1009.8 mb - 0.00 in0.0 mm 0.00 in0.0 mm
07:50 PM 32.0°F0.0°C 24.3°F-4.3°C 73% 7.0 mph NW11.3 kmh NW 10.1 mph16.3 kmh 29.82 in1009.8 mb - 0.00 in0.0 mm 0.00 in0.0 mm
08:00 PM 32.2°F0.1°C 24.5°F-4.2°C 73% 9.9 mph NW15.9 kmh NW 12.3 mph19.8 kmh 29.82 in1009.8 mb - 0.00 in0.0 mm 0.00 in0.0 mm
08:10 PM 32.2°F0.1°C 24.5°F-4.2°C 73% 8.9 mph NNW14.3 kmh NNW 10.9 mph17.5 kmh 29.82 in1009.8 mb - 0.00 in0.0 mm 0.00 in0.0 mm
08:20 PM 32.2°F0.1°C 24.5°F-4.2°C 73% 4.1 mph N6.6 kmh N 6.7 mph10.8 kmh 29.82 in1009.8 mb - 0.00 in0.0 mm 0.00 in0.0 mm
08:30 PM 32.0°F0.0°C 24.3°F-4.3°C 73% 6.3 mph NNW10.1 kmh NNW 8.0 mph12.9 kmh 29.82 in1009.8 mb - 0.00 in0.0 mm 0.00 in0.0 mm
08:40 PM 31.8°F-0.1°C 24.1°F-4.4°C 73% 4.9 mph NW7.9 kmh NW 7.6 mph12.2 kmh 29.82 in1009.8 mb - 0.00 in0.0 mm 0.00 in0.0 mm
08:50 PM 31.6°F-0.2°C 24.0°F-4.4°C 73% 2.2 mph N3.5 kmh N 5.8 mph9.3 kmh 29.82 in1009.8 mb - 0.00 in0.0 mm 0.00 in0.0 mm
09:00 PM 31.4°F-0.3°C 23.8°F-4.6°C 73% 2.6 mph N4.2 kmh N 10.9 mph17.5 kmh 29.82 in1009.8 mb - 0.00 in0.0 mm 0.00 in0.0 mm
09:10 PM 31.3°F-0.4°C 23.6°F-4.7°C 73% 6.2 mph N10.0 kmh N 13.2 mph21.2 kmh 29.80 in1009.1 mb - 0.00 in0.0 mm 0.00 in0.0 mm
09:20 PM 31.8°F-0.1°C 24.1°F-4.4°C 73% 8.0 mph NW12.9 kmh NW 12.7 mph20.4 kmh 29.82 in1009.8 mb - 0.00 in0.0 mm 0.00 in0.0 mm
09:30 PM 32.2°F0.1°C 24.5°F-4.2°C 73% 6.5 mph NNW10.5 kmh NNW 8.3 mph13.4 kmh 29.82 in1009.8 mb - 0.00 in0.0 mm 0.00 in0.0 mm
09:40 PM 32.0°F0.0°C 24.3°F-4.3°C 73% 5.0 mph N8.0 kmh N 9.6 mph15.4 kmh 29.80 in1009.1 mb - 0.00 in0.0 mm 0.00 in0.0 mm
09:50 PM 31.8°F-0.1°C 24.1°F-4.4°C 73% 4.9 mph NW7.9 kmh NW 8.3 mph13.4 kmh 29.80 in1009.1 mb - 0.00 in0.0 mm 0.00 in0.0 mm
10:00 PM 31.3°F-0.4°C 23.7°F-4.6°C 73% 4.6 mph N7.4 kmh N 4.9 mph7.9 kmh 29.80 in1009.1 mb - 0.00 in0.0 mm 0.00 in0.0 mm
10:10 PM 31.1°F-0.5°C 23.5°F-4.7°C 73% 4.9 mph N7.9 kmh N 8.7 mph14.0 kmh 29.80 in1009.1 mb - 0.00 in0.0 mm 0.00 in0.0 mm
10:20 PM 31.1°F-0.5°C 23.5°F-4.7°C 73% 5.2 mph N8.4 kmh N 7.6 mph12.2 kmh 29.80 in1009.1 mb - 0.00 in0.0 mm 0.00 in0.0 mm
10:30 PM 30.9°F-0.6°C 23.3°F-4.8°C 73% 2.4 mph N3.9 kmh N 2.7 mph4.3 kmh 29.80 in1009.1 mb - 0.00 in0.0 mm 0.00 in0.0 mm
10:40 PM 30.5°F-0.8°C 22.9°F-5.1°C 73% Calm Calm 3.6 mph5.8 kmh 29.80 in1009.1 mb - 0.00 in0.0 mm 0.00 in0.0 mm
10:50 PM 30.0°F-1.1°C 22.4°F-5.3°C 73% 3.7 mph NNE6.0 kmh NNE 8.7 mph14.0 kmh 29.80 in1009.1 mb - 0.00 in0.0 mm 0.00 in0.0 mm
11:00 PM 29.7°F-1.3°C 22.1°F-5.5°C 73% 2.7 mph N4.3 kmh N 6.3 mph10.1 kmh 29.80 in1009.1 mb - 0.00 in0.0 mm 0.00 in0.0 mm
11:10 PM 29.7°F-1.3°C 22.1°F-5.5°C 73% 4.2 mph N6.8 kmh N 5.8 mph9.3 kmh 29.80 in1009.1 mb - 0.00 in0.0 mm 0.00 in0.0 mm
11:20 PM 30.0°F-1.1°C 22.4°F-5.3°C 73% 7.2 mph N11.6 kmh N 8.0 mph12.9 kmh 29.80 in1009.1 mb - 0.00 in0.0 mm 0.00 in0.0 mm
11:30 PM 30.2°F-1.0°C 22.6°F-5.2°C 73% 5.1 mph NNW8.2 kmh NNW 5.8 mph9.3 kmh 29.80 in1009.1 mb - 0.00 in0.0 mm 0.00 in0.0 mm
11:40 PM 30.6°F-0.8°C 22.9°F-5.1°C 73% 5.4 mph NW8.7 kmh NW 8.3 mph13.4 kmh 29.80 in1009.1 mb - 0.00 in0.0 mm 0.00 in0.0 mm
11:50 PM 31.1°F-0.5°C 23.5°F-4.7°C 73% 6.5 mph NW10.5 kmh NW 8.3 mph13.4 kmh 29.80 in1009.1 mb - 0.00 in0.0 mm 0.00 in0.0 mm